JFA3G EKRK-EGKB
Flight info
| Callsign | JFA3G |
|---|---|
| Flight time | 1h 38m |
| Altitude | 40000 |
| Route | DOBEL N872 PAM L980 XAMAN |
| Aircraft | PC24/M-SBDGIRWY/LB2 |
Departure
| Time | 2026-04-26 08:27 |
|---|---|
| Airport | Copenhagen Roskilde Airport (EKRK) |
Arrival
| Time | 2026-04-26 10:05 |
|---|---|
| Airport | London Biggin Hill Airport (EGKB) |
| Time | Latitude | Longitude | Altitude | Speed | Heading |
|---|---|---|---|---|---|
| 2026-04-26 08:14 | 55.59029 | 12.12765 | 147 ft | 0 kts | 2° |
| 2026-04-26 08:18 | 55.59016 | 12.12762 | 147 ft | 2 kts | 23° |
| 2026-04-26 08:19 | 55.59001 | 12.12751 | 146 ft | 2 kts | 23° |
| 2026-04-26 08:19 | 55.58996 | 12.12751 | 146 ft | 2 kts | 89° |
| 2026-04-26 08:19 | 55.58993 | 12.12770 | 146 ft | 0 kts | 118° |
| 2026-04-26 08:22 | 55.58991 | 12.12777 | 146 ft | 2 kts | 117° |
| 2026-04-26 08:22 | 55.58971 | 12.12851 | 146 ft | 12 kts | 116° |
| 2026-04-26 08:22 | 55.58918 | 12.13041 | 145 ft | 22 kts | 115° |
| 2026-04-26 08:22 | 55.58837 | 12.13094 | 145 ft | 15 kts | 207° |
| 2026-04-26 08:23 | 55.58752 | 12.13098 | 145 ft | 11 kts | 122° |
| 2026-04-26 08:23 | 55.58718 | 12.13213 | 148 ft | 14 kts | 118° |
| 2026-04-26 08:23 | 55.58647 | 12.13463 | 147 ft | 27 kts | 114° |
| 2026-04-26 08:23 | 55.58582 | 12.13709 | 145 ft | 19 kts | 117° |
| 2026-04-26 08:24 | 55.58512 | 12.13781 | 143 ft | 9 kts | 205° |
| 2026-04-26 08:24 | 55.58503 | 12.13774 | 143 ft | 0 kts | 206° |
| 2026-04-26 08:25 | 55.58486 | 12.13760 | 143 ft | 7 kts | 205° |
| 2026-04-26 08:25 | 55.58434 | 12.13722 | 144 ft | 8 kts | 195° |
| 2026-04-26 08:26 | 55.58411 | 12.13661 | 143 ft | 7 kts | 283° |
| 2026-04-26 08:26 | 55.58417 | 12.13639 | 143 ft | 0 kts | 295° |
| 2026-04-26 08:26 | 55.58419 | 12.13632 | 143 ft | 6 kts | 296° |
| 2026-04-26 08:26 | 55.58519 | 12.13279 | 145 ft | 63 kts | 296° |
| 2026-04-26 08:27 | 55.58832 | 12.12209 | 202 ft | 127 kts | 298° |
| 2026-04-26 08:27 | 55.59164 | 12.10815 | 945 ft | 134 kts | 296° |
| 2026-04-26 08:27 | 55.59630 | 12.09019 | 1196 ft | 181 kts | 299° |
| 2026-04-26 08:27 | 55.60213 | 12.07115 | 1161 ft | 175 kts | 302° |
| 2026-04-26 08:28 | 55.60640 | 12.05153 | 1297 ft | 168 kts | 278° |
| 2026-04-26 08:28 | 55.60796 | 12.03313 | 1724 ft | 140 kts | 274° |
| 2026-04-26 08:28 | 55.60529 | 12.01715 | 1954 ft | 129 kts | 253° |
| 2026-04-26 08:28 | 55.60202 | 12.00146 | 2453 ft | 150 kts | 254° |
| 2026-04-26 08:29 | 55.59873 | 11.98306 | 3054 ft | 164 kts | 261° |
| 2026-04-26 08:29 | 55.59591 | 11.96169 | 3666 ft | 190 kts | 262° |
| 2026-04-26 08:29 | 55.59263 | 11.93829 | 4251 ft | 202 kts | 261° |
| 2026-04-26 08:29 | 55.58919 | 11.91397 | 4811 ft | 206 kts | 261° |
| 2026-04-26 08:30 | 55.58719 | 11.88920 | 5325 ft | 200 kts | 284° |
| 2026-04-26 08:30 | 55.59091 | 11.86564 | 5881 ft | 204 kts | 289° |
| 2026-04-26 08:30 | 55.59292 | 11.84106 | 7153 ft | 201 kts | 280° |
| 2026-04-26 08:30 | 55.59370 | 11.81610 | 8325 ft | 206 kts | 279° |
| 2026-04-26 08:31 | 55.59437 | 11.79075 | 9565 ft | 207 kts | 280° |
| 2026-04-26 08:31 | 55.59514 | 11.76528 | 10758 ft | 209 kts | 281° |
| 2026-04-26 08:31 | 55.59594 | 11.73951 | 11885 ft | 211 kts | 281° |
| 2026-04-26 08:31 | 55.59674 | 11.71341 | 13016 ft | 214 kts | 282° |
| 2026-04-26 08:32 | 55.59758 | 11.68648 | 13917 ft | 223 kts | 282° |
| 2026-04-26 08:32 | 55.59845 | 11.65840 | 14655 ft | 235 kts | 282° |
| 2026-04-26 08:32 | 55.59926 | 11.62965 | 15386 ft | 235 kts | 282° |
| 2026-04-26 08:32 | 55.60011 | 11.60044 | 16137 ft | 241 kts | 282° |
| 2026-04-26 08:33 | 55.60102 | 11.57020 | 16918 ft | 250 kts | 282° |
| 2026-04-26 08:33 | 55.60190 | 11.53930 | 17699 ft | 253 kts | 282° |
| 2026-04-26 08:33 | 55.60278 | 11.50804 | 18508 ft | 256 kts | 282° |
| 2026-04-26 08:33 | 55.60368 | 11.47648 | 19220 ft | 259 kts | 282° |
| 2026-04-26 08:34 | 55.60376 | 11.44415 | 19943 ft | 269 kts | 275° |
| 2026-04-26 08:34 | 55.60064 | 11.41080 | 20677 ft | 281 kts | 266° |
| 2026-04-26 08:34 | 55.59406 | 11.37749 | 21434 ft | 294 kts | 256° |
| 2026-04-26 08:34 | 55.58374 | 11.34539 | 22218 ft | 307 kts | 246° |
| 2026-04-26 08:35 | 55.56994 | 11.31576 | 23013 ft | 315 kts | 239° |
| 2026-04-26 08:35 | 55.55574 | 11.28703 | 23817 ft | 314 kts | 240° |
| 2026-04-26 08:35 | 55.54133 | 11.25751 | 24527 ft | 312 kts | 240° |
| 2026-04-26 08:35 | 55.52739 | 11.22900 | 25219 ft | 310 kts | 240° |
| 2026-04-26 08:36 | 55.51334 | 11.20042 | 25937 ft | 307 kts | 239° |
| 2026-04-26 08:36 | 55.49941 | 11.17212 | 26674 ft | 304 kts | 240° |
| 2026-04-26 08:36 | 55.48567 | 11.14420 | 27429 ft | 298 kts | 239° |
| 2026-04-26 08:36 | 55.47220 | 11.11688 | 28201 ft | 292 kts | 240° |
| 2026-04-26 08:37 | 55.45903 | 11.09019 | 28989 ft | 285 kts | 240° |
| 2026-04-26 08:37 | 55.44616 | 11.06411 | 29716 ft | 280 kts | 240° |
| 2026-04-26 08:37 | 55.43342 | 11.03823 | 30273 ft | 281 kts | 240° |
| 2026-04-26 08:37 | 55.42051 | 11.01202 | 30646 ft | 285 kts | 239° |
| 2026-04-26 08:38 | 55.40738 | 10.98551 | 31015 ft | 289 kts | 239° |
| 2026-04-26 08:38 | 55.39409 | 10.95876 | 31389 ft | 292 kts | 239° |
| 2026-04-26 08:38 | 55.38068 | 10.93177 | 31771 ft | 294 kts | 239° |
| 2026-04-26 08:38 | 55.36723 | 10.90470 | 32153 ft | 295 kts | 239° |
| 2026-04-26 08:39 | 55.35368 | 10.87745 | 32490 ft | 298 kts | 239° |
| 2026-04-26 08:39 | 55.33996 | 10.84986 | 32753 ft | 302 kts | 238° |
| 2026-04-26 08:39 | 55.32602 | 10.82190 | 33025 ft | 306 kts | 238° |
| 2026-04-26 08:39 | 55.31189 | 10.79363 | 33291 ft | 310 kts | 238° |
| 2026-04-26 08:40 | 55.29761 | 10.76506 | 33567 ft | 313 kts | 238° |
| 2026-04-26 08:40 | 55.28321 | 10.73629 | 33852 ft | 315 kts | 238° |
| 2026-04-26 08:40 | 55.26869 | 10.70732 | 34118 ft | 317 kts | 237° |
| 2026-04-26 08:40 | 55.25408 | 10.67820 | 34388 ft | 319 kts | 237° |
| 2026-04-26 08:41 | 55.23959 | 10.64934 | 34621 ft | 320 kts | 237° |
| 2026-04-26 08:41 | 55.22463 | 10.61960 | 34864 ft | 322 kts | 237° |
| 2026-04-26 08:41 | 55.21001 | 10.59056 | 35096 ft | 323 kts | 237° |
| 2026-04-26 08:41 | 55.19514 | 10.56106 | 35336 ft | 324 kts | 237° |
| 2026-04-26 08:42 | 55.18022 | 10.53151 | 35581 ft | 324 kts | 236° |
| 2026-04-26 08:42 | 55.16525 | 10.50186 | 35757 ft | 327 kts | 236° |
| 2026-04-26 08:42 | 55.15011 | 10.47190 | 35884 ft | 331 kts | 236° |
| 2026-04-26 08:42 | 55.13476 | 10.44161 | 36010 ft | 335 kts | 236° |
| 2026-04-26 08:43 | 55.11923 | 10.41101 | 36137 ft | 338 kts | 236° |
| 2026-04-26 08:43 | 55.10357 | 10.38018 | 36271 ft | 341 kts | 235° |
| 2026-04-26 08:43 | 55.08780 | 10.34916 | 36403 ft | 343 kts | 235° |
| 2026-04-26 08:43 | 55.07189 | 10.31791 | 36535 ft | 346 kts | 235° |
| 2026-04-26 08:44 | 55.05586 | 10.28648 | 36661 ft | 348 kts | 235° |
| 2026-04-26 08:44 | 55.03974 | 10.25491 | 36793 ft | 349 kts | 235° |
| 2026-04-26 08:44 | 55.02354 | 10.22321 | 36923 ft | 351 kts | 234° |
| 2026-04-26 08:44 | 55.00727 | 10.19142 | 37050 ft | 352 kts | 234° |
| 2026-04-26 08:45 | 54.99093 | 10.15955 | 37184 ft | 353 kts | 234° |
| 2026-04-26 08:45 | 54.97455 | 10.12762 | 37312 ft | 354 kts | 234° |
| 2026-04-26 08:45 | 54.95811 | 10.09565 | 37446 ft | 355 kts | 234° |
| 2026-04-26 08:45 | 54.94164 | 10.06364 | 37578 ft | 355 kts | 234° |
| 2026-04-26 08:46 | 54.92512 | 10.03156 | 37711 ft | 357 kts | 234° |
| 2026-04-26 08:46 | 54.90850 | 9.99934 | 37847 ft | 359 kts | 234° |
| 2026-04-26 08:46 | 54.89228 | 9.96643 | 37986 ft | 359 kts | 235° |
| 2026-04-26 08:46 | 54.87605 | 9.93330 | 38133 ft | 361 kts | 235° |
| 2026-04-26 08:47 | 54.85972 | 9.90025 | 38323 ft | 361 kts | 234° |
| 2026-04-26 08:47 | 54.84343 | 9.86717 | 38517 ft | 360 kts | 235° |
| 2026-04-26 08:47 | 54.82821 | 9.83297 | 38705 ft | 356 kts | 240° |
| 2026-04-26 08:47 | 54.81404 | 9.79775 | 38902 ft | 356 kts | 240° |
| 2026-04-26 08:48 | 54.79967 | 9.76280 | 39074 ft | 356 kts | 239° |
| 2026-04-26 08:48 | 54.78530 | 9.72795 | 39256 ft | 355 kts | 239° |
| 2026-04-26 08:48 | 54.77103 | 9.69312 | 39429 ft | 354 kts | 239° |
| 2026-04-26 08:48 | 54.75682 | 9.65839 | 39611 ft | 354 kts | 239° |
| 2026-04-26 08:49 | 54.74255 | 9.62371 | 39793 ft | 353 kts | 239° |
| 2026-04-26 08:49 | 54.72832 | 9.58919 | 39973 ft | 352 kts | 239° |
| 2026-04-26 08:49 | 54.71404 | 9.55458 | 40099 ft | 354 kts | 239° |
| 2026-04-26 08:49 | 54.69973 | 9.51989 | 40226 ft | 355 kts | 239° |
| 2026-04-26 08:50 | 54.67571 | 9.46181 | 40318 ft | 361 kts | 239° |
| 2026-04-26 08:50 | 54.64613 | 9.39054 | 40333 ft | 369 kts | 238° |
| 2026-04-26 08:51 | 54.60059 | 9.28121 | 40331 ft | 379 kts | 238° |
| 2026-04-26 08:52 | 54.56960 | 9.20708 | 40333 ft | 384 kts | 238° |
| 2026-04-26 08:52 | 54.53817 | 9.13214 | 40325 ft | 388 kts | 238° |
| 2026-04-26 08:53 | 54.50639 | 9.05659 | 40335 ft | 391 kts | 238° |
| 2026-04-26 08:53 | 54.47433 | 8.98060 | 40334 ft | 393 kts | 238° |
| 2026-04-26 08:54 | 54.44209 | 8.90444 | 40335 ft | 394 kts | 237° |
| 2026-04-26 08:54 | 54.40983 | 8.82843 | 40335 ft | 393 kts | 237° |
| 2026-04-26 08:55 | 54.37761 | 8.75276 | 40329 ft | 392 kts | 237° |
| 2026-04-26 08:55 | 54.34540 | 8.67734 | 40334 ft | 392 kts | 237° |
| 2026-04-26 08:56 | 54.31320 | 8.60217 | 40325 ft | 391 kts | 237° |
| 2026-04-26 08:56 | 54.28099 | 8.52723 | 40321 ft | 390 kts | 237° |
| 2026-04-26 08:57 | 54.24880 | 8.45251 | 40328 ft | 390 kts | 237° |
| 2026-04-26 08:57 | 54.21441 | 8.38080 | 40329 ft | 394 kts | 227° |
| 2026-04-26 08:58 | 54.17469 | 8.31657 | 40341 ft | 398 kts | 227° |
| 2026-04-26 08:58 | 54.13457 | 8.25150 | 40346 ft | 397 kts | 227° |
| 2026-04-26 08:59 | 54.09460 | 8.18706 | 40340 ft | 394 kts | 227° |
| 2026-04-26 08:59 | 54.05488 | 8.12294 | 40336 ft | 394 kts | 227° |
| 2026-04-26 09:00 | 54.01492 | 8.05860 | 40340 ft | 397 kts | 226° |
| 2026-04-26 09:00 | 53.97471 | 7.99406 | 40340 ft | 398 kts | 226° |
| 2026-04-26 09:01 | 53.93448 | 7.92974 | 40346 ft | 397 kts | 226° |
| 2026-04-26 09:01 | 53.89435 | 7.86572 | 40352 ft | 395 kts | 226° |
| 2026-04-26 09:02 | 53.85427 | 7.80197 | 40347 ft | 395 kts | 226° |
| 2026-04-26 09:02 | 53.81423 | 7.73845 | 40343 ft | 394 kts | 226° |
| 2026-04-26 09:03 | 53.77415 | 7.67504 | 40343 ft | 395 kts | 226° |
| 2026-04-26 09:03 | 53.73401 | 7.61171 | 40342 ft | 395 kts | 226° |
| 2026-04-26 09:04 | 53.69380 | 7.54845 | 40342 ft | 395 kts | 226° |
| 2026-04-26 09:04 | 53.65351 | 7.48523 | 40342 ft | 395 kts | 226° |
| 2026-04-26 09:05 | 53.61317 | 7.42211 | 40343 ft | 396 kts | 226° |
| 2026-04-26 09:05 | 53.57281 | 7.35914 | 40341 ft | 396 kts | 226° |
| 2026-04-26 09:06 | 53.53240 | 7.29625 | 40362 ft | 396 kts | 226° |
| 2026-04-26 09:06 | 53.49191 | 7.23340 | 40368 ft | 396 kts | 226° |
| 2026-04-26 09:07 | 53.45135 | 7.17063 | 40366 ft | 397 kts | 225° |
| 2026-04-26 09:07 | 53.41073 | 7.10794 | 40368 ft | 397 kts | 225° |
| 2026-04-26 09:08 | 53.37005 | 7.04531 | 40367 ft | 397 kts | 225° |
| 2026-04-26 09:08 | 53.33003 | 6.98169 | 40363 ft | 395 kts | 231° |
| 2026-04-26 09:09 | 53.29393 | 6.91250 | 40359 ft | 395 kts | 231° |
| 2026-04-26 09:09 | 53.25754 | 6.84354 | 40344 ft | 396 kts | 231° |
| 2026-04-26 09:10 | 53.22140 | 6.77488 | 40343 ft | 396 kts | 231° |
| 2026-04-26 09:10 | 53.18502 | 6.70616 | 40339 ft | 394 kts | 231° |
| 2026-04-26 09:11 | 53.14926 | 6.63727 | 40338 ft | 391 kts | 232° |
| 2026-04-26 09:11 | 53.11384 | 6.56843 | 40338 ft | 392 kts | 232° |
| 2026-04-26 09:12 | 53.07832 | 6.49901 | 40344 ft | 395 kts | 232° |
| 2026-04-26 09:12 | 53.04254 | 6.42947 | 40344 ft | 395 kts | 232° |
| 2026-04-26 09:13 | 53.00693 | 6.36042 | 40339 ft | 392 kts | 232° |
| 2026-04-26 09:13 | 52.97146 | 6.29180 | 40339 ft | 392 kts | 232° |
| 2026-04-26 09:14 | 52.93575 | 6.22292 | 40340 ft | 395 kts | 232° |
| 2026-04-26 09:14 | 52.89979 | 6.15376 | 40341 ft | 397 kts | 232° |
| 2026-04-26 09:15 | 52.86383 | 6.08481 | 40339 ft | 394 kts | 232° |
| 2026-04-26 09:15 | 52.82805 | 6.01636 | 40337 ft | 392 kts | 231° |
| 2026-04-26 09:16 | 52.79228 | 5.94811 | 40341 ft | 394 kts | 231° |
| 2026-04-26 09:16 | 52.75622 | 5.87953 | 40345 ft | 397 kts | 231° |
| 2026-04-26 09:17 | 52.71997 | 5.81076 | 40344 ft | 396 kts | 231° |
| 2026-04-26 09:17 | 52.68405 | 5.74292 | 40342 ft | 394 kts | 231° |
| 2026-04-26 09:18 | 52.64804 | 5.67506 | 40342 ft | 394 kts | 231° |
| 2026-04-26 09:18 | 52.61183 | 5.60702 | 40340 ft | 396 kts | 231° |
| 2026-04-26 09:19 | 52.57538 | 5.53872 | 40344 ft | 398 kts | 231° |
| 2026-04-26 09:19 | 52.53880 | 5.47036 | 40347 ft | 398 kts | 231° |
| 2026-04-26 09:20 | 52.50230 | 5.40234 | 40337 ft | 396 kts | 231° |
| 2026-04-26 09:20 | 52.46595 | 5.33475 | 40336 ft | 394 kts | 231° |
| 2026-04-26 09:21 | 52.42963 | 5.26737 | 40339 ft | 395 kts | 231° |
| 2026-04-26 09:21 | 52.39313 | 5.19983 | 40338 ft | 397 kts | 231° |
| 2026-04-26 09:22 | 52.35646 | 5.13213 | 40339 ft | 398 kts | 231° |
| 2026-04-26 09:22 | 52.32772 | 5.05597 | 40341 ft | 393 kts | 250° |
| 2026-04-26 09:23 | 52.31014 | 4.97150 | 40358 ft | 392 kts | 253° |
| 2026-04-26 09:23 | 52.29274 | 4.88725 | 40347 ft | 391 kts | 253° |
| 2026-04-26 09:24 | 52.27545 | 4.80323 | 40353 ft | 390 kts | 253° |
| 2026-04-26 09:24 | 52.25808 | 4.71949 | 40340 ft | 389 kts | 253° |
| 2026-04-26 09:25 | 52.24071 | 4.63600 | 40342 ft | 388 kts | 253° |
| 2026-04-26 09:25 | 52.22338 | 4.55308 | 40340 ft | 390 kts | 253° |
| 2026-04-26 09:26 | 52.20578 | 4.46922 | 40343 ft | 392 kts | 253° |
| 2026-04-26 09:26 | 52.18806 | 4.38512 | 40346 ft | 392 kts | 253° |
| 2026-04-26 09:27 | 52.17032 | 4.30131 | 40345 ft | 390 kts | 253° |
| 2026-04-26 09:27 | 52.15261 | 4.21796 | 40347 ft | 388 kts | 253° |
| 2026-04-26 09:28 | 52.13487 | 4.13478 | 40348 ft | 390 kts | 252° |
| 2026-04-26 09:28 | 52.11696 | 4.05119 | 40350 ft | 392 kts | 252° |
| 2026-04-26 09:29 | 52.09896 | 3.96756 | 40352 ft | 391 kts | 252° |
| 2026-04-26 09:29 | 52.08991 | 3.92559 | 39989 ft | 396 kts | 252° |
| 2026-04-26 09:29 | 52.08082 | 3.88357 | 39473 ft | 391 kts | 252° |
| 2026-04-26 09:29 | 52.07187 | 3.84231 | 38955 ft | 384 kts | 252° |
| 2026-04-26 09:30 | 52.06306 | 3.80177 | 38417 ft | 376 kts | 252° |
| 2026-04-26 09:30 | 52.05441 | 3.76202 | 37937 ft | 373 kts | 253° |
| 2026-04-26 09:30 | 52.04568 | 3.72191 | 37433 ft | 379 kts | 252° |
| 2026-04-26 09:30 | 52.03685 | 3.68147 | 36928 ft | 382 kts | 253° |
| 2026-04-26 09:31 | 52.02792 | 3.64074 | 36426 ft | 383 kts | 253° |
| 2026-04-26 09:31 | 52.01897 | 3.59995 | 35920 ft | 384 kts | 253° |
| 2026-04-26 09:31 | 52.01000 | 3.55916 | 35414 ft | 384 kts | 253° |
| 2026-04-26 09:31 | 52.00083 | 3.51851 | 34905 ft | 384 kts | 250° |
| 2026-04-26 09:32 | 51.98841 | 3.47994 | 34402 ft | 388 kts | 241° |
| 2026-04-26 09:32 | 51.97270 | 3.44423 | 33865 ft | 390 kts | 237° |
| 2026-04-26 09:32 | 51.95656 | 3.40865 | 33335 ft | 393 kts | 237° |
| 2026-04-26 09:32 | 51.94040 | 3.37269 | 32820 ft | 396 kts | 237° |
| 2026-04-26 09:33 | 51.92407 | 3.33658 | 32294 ft | 398 kts | 237° |
| 2026-04-26 09:33 | 51.90765 | 3.30047 | 31767 ft | 399 kts | 237° |
| 2026-04-26 09:33 | 51.89118 | 3.26425 | 31241 ft | 400 kts | 237° |
| 2026-04-26 09:33 | 51.87472 | 3.22794 | 30711 ft | 400 kts | 238° |
| 2026-04-26 09:34 | 51.86072 | 3.18935 | 30151 ft | 397 kts | 247° |
| 2026-04-26 09:34 | 51.85075 | 3.14801 | 29619 ft | 394 kts | 256° |
| 2026-04-26 09:34 | 51.84491 | 3.10474 | 29099 ft | 395 kts | 264° |
| 2026-04-26 09:34 | 51.84207 | 3.06059 | 28581 ft | 397 kts | 266° |
| 2026-04-26 09:35 | 51.83916 | 3.01610 | 28056 ft | 399 kts | 265° |
| 2026-04-26 09:35 | 51.83619 | 2.97161 | 27526 ft | 397 kts | 265° |
| 2026-04-26 09:35 | 51.83329 | 2.92747 | 26997 ft | 393 kts | 265° |
| 2026-04-26 09:35 | 51.83042 | 2.88369 | 26493 ft | 390 kts | 265° |
| 2026-04-26 09:36 | 51.82753 | 2.84023 | 25973 ft | 388 kts | 265° |
| 2026-04-26 09:36 | 51.82464 | 2.79708 | 25468 ft | 385 kts | 265° |
| 2026-04-26 09:36 | 51.82272 | 2.76865 | 25139 ft | 383 kts | 265° |
| 2026-04-26 09:36 | 51.81892 | 2.71219 | 24474 ft | 379 kts | 265° |
| 2026-04-26 09:37 | 51.81604 | 2.66995 | 23976 ft | 377 kts | 265° |
| 2026-04-26 09:37 | 51.81318 | 2.62802 | 23442 ft | 374 kts | 265° |
| 2026-04-26 09:37 | 51.81031 | 2.58642 | 22951 ft | 372 kts | 265° |
| 2026-04-26 09:37 | 51.80745 | 2.54495 | 22465 ft | 371 kts | 265° |
| 2026-04-26 09:38 | 51.80550 | 2.51696 | 22128 ft | 369 kts | 265° |
| 2026-04-26 09:38 | 51.80265 | 2.47598 | 21653 ft | 366 kts | 265° |
| 2026-04-26 09:38 | 51.79979 | 2.43529 | 21175 ft | 363 kts | 264° |
| 2026-04-26 09:38 | 51.79694 | 2.39487 | 20701 ft | 361 kts | 265° |
| 2026-04-26 09:39 | 51.79409 | 2.35468 | 20231 ft | 359 kts | 264° |
| 2026-04-26 09:39 | 51.79125 | 2.31469 | 19755 ft | 357 kts | 264° |
| 2026-04-26 09:39 | 51.78841 | 2.27493 | 19287 ft | 355 kts | 264° |
| 2026-04-26 09:39 | 51.78557 | 2.23539 | 18822 ft | 354 kts | 264° |
| 2026-04-26 09:40 | 51.78321 | 2.19605 | 18318 ft | 350 kts | 266° |
| 2026-04-26 09:40 | 51.78098 | 2.15752 | 17869 ft | 349 kts | 265° |
| 2026-04-26 09:40 | 51.77858 | 2.11866 | 17413 ft | 347 kts | 265° |
| 2026-04-26 09:40 | 51.77627 | 2.07995 | 16962 ft | 346 kts | 265° |
| 2026-04-26 09:41 | 51.77400 | 2.04139 | 16507 ft | 344 kts | 265° |
| 2026-04-26 09:41 | 51.77177 | 2.00400 | 16067 ft | 323 kts | 265° |
| 2026-04-26 09:41 | 51.76965 | 1.96887 | 15662 ft | 307 kts | 265° |
| 2026-04-26 09:41 | 51.76761 | 1.93508 | 15274 ft | 299 kts | 265° |
| 2026-04-26 09:42 | 51.76559 | 1.90173 | 14888 ft | 298 kts | 265° |
| 2026-04-26 09:42 | 51.76356 | 1.86839 | 14501 ft | 298 kts | 265° |
| 2026-04-26 09:42 | 51.76152 | 1.83517 | 14103 ft | 297 kts | 264° |
| 2026-04-26 09:42 | 51.75949 | 1.80213 | 13693 ft | 295 kts | 264° |
| 2026-04-26 09:43 | 51.75746 | 1.76934 | 13301 ft | 293 kts | 264° |
| 2026-04-26 09:43 | 51.75543 | 1.73668 | 12918 ft | 292 kts | 264° |
| 2026-04-26 09:43 | 51.75341 | 1.70420 | 12535 ft | 291 kts | 264° |
| 2026-04-26 09:43 | 51.75137 | 1.67169 | 12152 ft | 291 kts | 264° |
| 2026-04-26 09:44 | 51.74932 | 1.63918 | 11771 ft | 291 kts | 264° |
| 2026-04-26 09:44 | 51.74726 | 1.60666 | 11386 ft | 291 kts | 264° |
| 2026-04-26 09:44 | 51.74521 | 1.57422 | 11007 ft | 290 kts | 264° |
| 2026-04-26 09:44 | 51.74315 | 1.54187 | 10626 ft | 289 kts | 264° |
| 2026-04-26 09:45 | 51.74109 | 1.50959 | 10245 ft | 289 kts | 264° |
| 2026-04-26 09:45 | 51.73815 | 1.47765 | 9819 ft | 287 kts | 255° |
| 2026-04-26 09:45 | 51.73047 | 1.44848 | 9463 ft | 275 kts | 240° |
| 2026-04-26 09:45 | 51.71956 | 1.42519 | 9383 ft | 248 kts | 226° |
| 2026-04-26 09:46 | 51.70663 | 1.40764 | 9345 ft | 239 kts | 214° |
| 2026-04-26 09:46 | 51.69205 | 1.39522 | 9341 ft | 237 kts | 203° |
| 2026-04-26 09:46 | 51.67686 | 1.38442 | 9345 ft | 239 kts | 204° |
| 2026-04-26 09:46 | 51.66165 | 1.37339 | 9347 ft | 240 kts | 204° |
| 2026-04-26 09:47 | 51.64657 | 1.36253 | 9349 ft | 241 kts | 204° |
| 2026-04-26 09:47 | 51.63126 | 1.35158 | 9348 ft | 241 kts | 204° |
| 2026-04-26 09:47 | 51.61591 | 1.34059 | 9350 ft | 241 kts | 204° |
| 2026-04-26 09:47 | 51.60050 | 1.32997 | 9345 ft | 240 kts | 199° |
| 2026-04-26 09:48 | 51.58407 | 1.32593 | 9341 ft | 240 kts | 180° |
| 2026-04-26 09:48 | 51.56766 | 1.33011 | 9338 ft | 239 kts | 165° |
| 2026-04-26 09:48 | 51.55160 | 1.33714 | 9345 ft | 240 kts | 165° |
| 2026-04-26 09:48 | 51.53542 | 1.34402 | 9347 ft | 241 kts | 165° |
| 2026-04-26 09:49 | 51.51877 | 1.35111 | 9359 ft | 256 kts | 165° |
| 2026-04-26 09:49 | 51.50124 | 1.35628 | 9341 ft | 261 kts | 182° |
| 2026-04-26 09:49 | 51.48451 | 1.34603 | 9337 ft | 262 kts | 219° |
| 2026-04-26 09:49 | 51.47372 | 1.32286 | 9344 ft | 262 kts | 247° |
| 2026-04-26 09:50 | 51.47090 | 1.29411 | 9347 ft | 264 kts | 270° |
| 2026-04-26 09:50 | 51.47183 | 1.26466 | 9354 ft | 265 kts | 273° |
| 2026-04-26 09:50 | 51.47262 | 1.23518 | 9356 ft | 263 kts | 271° |
| 2026-04-26 09:50 | 51.47279 | 1.20588 | 9357 ft | 262 kts | 270° |
| 2026-04-26 09:51 | 51.47291 | 1.17664 | 9293 ft | 264 kts | 270° |
| 2026-04-26 09:51 | 51.47314 | 1.14704 | 9004 ft | 266 kts | 270° |
| 2026-04-26 09:51 | 51.47339 | 1.11760 | 8665 ft | 262 kts | 270° |
| 2026-04-26 09:51 | 51.47362 | 1.08849 | 8322 ft | 260 kts | 271° |
| 2026-04-26 09:52 | 51.47382 | 1.05979 | 7982 ft | 258 kts | 270° |
| 2026-04-26 09:52 | 51.47413 | 1.01522 | 7306 ft | 260 kts | 271° |
| 2026-04-26 09:52 | 51.47431 | 0.98692 | 6935 ft | 255 kts | 271° |
| 2026-04-26 09:53 | 51.47449 | 0.95875 | 6458 ft | 247 kts | 270° |
| 2026-04-26 09:53 | 51.47466 | 0.93191 | 6109 ft | 234 kts | 270° |
| 2026-04-26 09:53 | 51.47529 | 0.90668 | 6021 ft | 223 kts | 274° |
| 2026-04-26 09:53 | 51.47634 | 0.88155 | 6002 ft | 227 kts | 273° |
| 2026-04-26 09:54 | 51.47725 | 0.85621 | 6006 ft | 229 kts | 273° |
| 2026-04-26 09:54 | 51.47819 | 0.83062 | 6008 ft | 230 kts | 274° |
| 2026-04-26 09:54 | 51.47917 | 0.80492 | 6008 ft | 231 kts | 274° |
| 2026-04-26 09:54 | 51.48016 | 0.77895 | 5849 ft | 233 kts | 274° |
| 2026-04-26 09:55 | 51.48113 | 0.75311 | 5690 ft | 231 kts | 273° |
| 2026-04-26 09:55 | 51.48209 | 0.72740 | 5533 ft | 230 kts | 273° |
| 2026-04-26 09:55 | 51.48304 | 0.70183 | 5378 ft | 229 kts | 273° |
| 2026-04-26 09:55 | 51.48399 | 0.67631 | 5227 ft | 229 kts | 273° |
| 2026-04-26 09:56 | 51.48492 | 0.65081 | 5075 ft | 229 kts | 273° |
| 2026-04-26 09:56 | 51.48586 | 0.62530 | 4916 ft | 229 kts | 273° |
| 2026-04-26 09:56 | 51.48677 | 0.60016 | 4760 ft | 228 kts | 273° |
| 2026-04-26 09:56 | 51.48770 | 0.57443 | 4613 ft | 228 kts | 273° |
| 2026-04-26 09:57 | 51.48860 | 0.54937 | 4465 ft | 228 kts | 273° |
| 2026-04-26 09:57 | 51.48950 | 0.52399 | 4313 ft | 228 kts | 273° |
| 2026-04-26 09:57 | 51.49040 | 0.49858 | 4163 ft | 228 kts | 273° |
| 2026-04-26 09:57 | 51.49003 | 0.47321 | 4003 ft | 228 kts | 258° |
| 2026-04-26 09:58 | 51.48451 | 0.44959 | 3894 ft | 225 kts | 239° |
| 2026-04-26 09:58 | 51.47652 | 0.42808 | 3796 ft | 226 kts | 238° |
| 2026-04-26 09:58 | 51.46854 | 0.40628 | 3671 ft | 227 kts | 239° |
| 2026-04-26 09:58 | 51.46052 | 0.38439 | 3537 ft | 228 kts | 238° |
| 2026-04-26 09:59 | 51.45270 | 0.36307 | 3394 ft | 212 kts | 238° |
| 2026-04-26 09:59 | 51.44557 | 0.34363 | 3253 ft | 196 kts | 238° |
| 2026-04-26 09:59 | 51.43874 | 0.32510 | 3125 ft | 192 kts | 238° |
| 2026-04-26 09:59 | 51.43252 | 0.30629 | 3004 ft | 193 kts | 250° |
| 2026-04-26 10:00 | 51.43095 | 0.28527 | 2989 ft | 191 kts | 272° |
| 2026-04-26 10:00 | 51.43182 | 0.26397 | 3002 ft | 193 kts | 273° |
| 2026-04-26 10:00 | 51.43260 | 0.24202 | 2766 ft | 199 kts | 273° |
| 2026-04-26 10:00 | 51.43342 | 0.22017 | 2511 ft | 196 kts | 272° |
| 2026-04-26 10:01 | 51.43427 | 0.19840 | 2251 ft | 195 kts | 272° |
| 2026-04-26 10:01 | 51.43550 | 0.17712 | 1988 ft | 189 kts | 274° |
| 2026-04-26 10:01 | 51.43664 | 0.15683 | 1802 ft | 177 kts | 274° |
| 2026-04-26 10:01 | 51.43660 | 0.13806 | 1784 ft | 168 kts | 253° |
| 2026-04-26 10:02 | 51.43257 | 0.12084 | 1785 ft | 164 kts | 244° |
| 2026-04-26 10:02 | 51.42569 | 0.10679 | 1805 ft | 163 kts | 217° |
| 2026-04-26 10:02 | 51.41595 | 0.09749 | 1808 ft | 163 kts | 203° |
| 2026-04-26 10:02 | 51.40582 | 0.08933 | 1807 ft | 164 kts | 202° |
| 2026-04-26 10:03 | 51.39595 | 0.08164 | 1783 ft | 151 kts | 201° |
| 2026-04-26 10:03 | 51.38652 | 0.07451 | 1635 ft | 151 kts | 201° |
| 2026-04-26 10:03 | 51.37719 | 0.06735 | 1421 ft | 149 kts | 201° |
| 2026-04-26 10:03 | 51.36851 | 0.06088 | 1205 ft | 131 kts | 202° |
| 2026-04-26 10:04 | 51.36058 | 0.05484 | 1015 ft | 124 kts | 202° |
| 2026-04-26 10:04 | 51.35293 | 0.04903 | 900 ft | 122 kts | 203° |
| 2026-04-26 10:04 | 51.34510 | 0.04323 | 714 ft | 126 kts | 202° |
| 2026-04-26 10:04 | 51.33745 | 0.03738 | 529 ft | 116 kts | 204° |
| 2026-04-26 10:05 | 51.33107 | 0.03257 | 554 ft | 89 kts | 207° |
| 2026-04-26 10:05 | 51.32677 | 0.02926 | 577 ft | 46 kts | 205° |
| 2026-04-26 10:05 | 51.32472 | 0.02770 | 587 ft | 25 kts | 207° |
| 2026-04-26 10:05 | 51.32419 | 0.02634 | 589 ft | 14 kts | 296° |
| 2026-04-26 10:06 | 51.32472 | 0.02559 | 587 ft | 0 kts | 343° |
| 2026-04-26 10:07 | 51.32477 | 0.02557 | 587 ft | 3 kts | 344° |
| 2026-04-26 10:07 | 51.32531 | 0.02544 | 585 ft | 13 kts | 10° |
| 2026-04-26 10:08 | 51.32641 | 0.02623 | 580 ft | 22 kts | 26° |
| 2026-04-26 10:08 | 51.32799 | 0.02750 | 573 ft | 28 kts | 34° |
| 2026-04-26 10:08 | 51.32972 | 0.02878 | 565 ft | 26 kts | 22° |
| 2026-04-26 10:08 | 51.33127 | 0.02942 | 558 ft | 20 kts | 338° |
| 2026-04-26 10:09 | 51.33198 | 0.02952 | 558 ft | 4 kts | 64° |
| 2026-04-26 10:09 | 51.33198 | 0.02963 | 560 ft | 0 kts | 106° |
| 2026-04-26 10:09 | 51.33197 | 0.02964 | 560 ft | 0 kts | 106° |